Time;durP1;ratioP1;P1;durP2;ratioP2;P2;SDS_P1;SDS_P2;PMS_P1;PMS_P2;Temp;Humidity;BMP_temperature;BMP_pressure;BME280_temperature;BME280_humidity;BME280_pressure;Samples;Min_cycle;Max_cycle;Signal;HPM_P1;HPM_P2
2022/02/04 00:08:29;;;;;;;;;;;;;;;28.89;24.26;100213.50;5072976;28;1513;-70
2022/02/04 00:25:03;;;;;;;;;;;;;;;29.12;23.65;100200.38;5109212;27;1521;-73
2022/02/04 00:27:30;;;;;;;;;;;;;;;29.53;23.37;100205.59;5109173;28;1032;-71
2022/02/04 00:30:03;;;;;;;;;;;;;;;29.37;23.32;100207.38;5090775;28;1381;-72
2022/02/04 00:32:32;;;;;;;;;;;;;;;29.37;23.54;100202.63;5107907;28;1036;-71
2022/02/04 00:35:08;;;;;;;;;;;;;;;29.11;24.06;100209.00;5108742;28;978;-75
2022/02/04 00:37:43;;;;;;;;;;;;;;;29.14;24.15;100211.28;5108880;28;756;-73
2022/02/04 00:40:17;;;;;;;;;;;;;;;28.60;24.74;100210.00;5108815;28;1384;-72
2022/02/04 00:42:43;;;;;;;;;;;;;;;28.40;24.71;100218.91;5090545;28;1938;-73
2022/02/04 00:45:18;;;;;;;;;;;;;;;28.87;24.20;100212.88;5108603;28;974;-72
2022/02/04 00:47:51;;;;;;;;;;;;;;;29.30;23.72;100209.53;5105836;28;1476;-75
2022/02/04 00:50:26;;;;;;;;;;;;;;;28.06;25.08;100211.41;5108499;28;1334;-74
2022/02/04 00:53:05;;;;;;;;;;;;;;;28.50;24.55;100213.47;5107597;28;783;-72
2022/02/04 00:55:40;;;;;;;;;;;;;;;27.38;26.30;100219.63;5108644;28;816;-72
2022/02/04 01:13:08;;;;;;;;;;;;;;;29.20;24.26;100211.06;5108219;28;1030;-73
2022/02/04 01:26:00;;;;;;;;;;;;;;;28.61;24.53;100194.06;5128380;28;1018;-72
2022/02/04 01:28:28;;;;;;;;;;;;;;;28.45;24.52;100205.03;5128276;28;1319;-74
2022/02/04 01:30:55;;;;;;;;;;;;;;;28.17;24.88;100201.25;5128213;28;816;-71
2022/02/04 01:33:22;;;;;;;;;;;;;;;28.75;24.35;100200.19;5128171;28;958;-71
2022/02/04 01:35:48;;;;;;;;;;;;;;;28.68;24.39;100206.78;5117607;27;1049;-74
2022/02/04 01:38:15;;;;;;;;;;;;;;;28.93;24.07;100205.44;5114660;28;1305;-71
2022/02/04 01:40:41;;;;;;;;;;;;;;;28.87;24.14;100203.69;5113261;28;978;-73
2022/02/04 01:43:07;;;;;;;;;;;;;;;28.77;24.27;100212.78;5114240;28;1910;-74
2022/02/04 01:45:35;;;;;;;;;;;;;;;28.16;24.96;100204.31;5114067;28;800;-72
2022/02/04 01:48:01;;;;;;;;;;;;;;;26.89;25.79;100208.00;5114367;28;1370;-72
2022/02/04 01:50:29;;;;;;;;;;;;;;;28.06;24.82;100200.25;5114597;28;1061;-72
2022/02/04 01:52:57;;;;;;;;;;;;;;;27.92;25.34;100198.03;5113134;28;1143;-70
2022/02/04 01:55:23;;;;;;;;;;;;;;;27.73;25.47;100206.63;5114273;28;1094;-72
2022/02/04 01:57:49;;;;;;;;;;;;;;;27.99;25.02;100198.69;5114298;28;977;-73
2022/02/04 02:00:17;;;;;;;;;;;;;;;28.42;24.87;100201.91;5112915;28;1380;-70
2022/02/04 02:02:45;;;;;;;;;;;;;;;28.77;24.46;100209.97;5114087;28;870;-72
2022/02/04 02:05:11;;;;;;;;;;;;;;;28.74;23.98;100204.88;5113656;28;1914;-71
2022/02/04 02:07:43;;;;;;;;;;;;;;;28.94;24.13;100203.47;5112609;28;994;-72
2022/02/04 02:10:12;;;;;;;;;;;;;;;28.16;25.15;100202.34;5113918;28;1455;-73
2022/02/04 02:12:47;;;;;;;;;;;;;;;28.03;25.30;100211.06;5112711;28;982;-72
2022/02/04 02:15:20;;;;;;;;;;;;;;;28.28;24.32;100212.59;5113570;28;1077;-74
2022/02/04 02:42:48;;;;;;;;;;;;;;;28.39;24.77;100192.09;5113128;28;1456;-72
2022/02/04 02:45:29;;;;;;;;;;;;;;;27.59;25.31;100200.50;5113293;28;1914;-74
2022/02/04 02:48:13;;;;;;;;;;;;;;;27.79;25.00;100199.19;5112209;28;1292;-75
2022/02/04 02:51:02;;;;;;;;;;;;;;;28.57;24.23;100199.34;5113657;28;905;-74
2022/02/04 02:56:51;;;;;;;;;;;;;;;28.04;25.01;100199.63;5112788;28;1018;-73
2022/02/04 02:59:14;;;;;;;;;;;;;;;27.76;25.22;100191.34;5111489;28;1364;-73
2022/02/04 03:01:45;;;;;;;;;;;;;;;28.87;23.66;100190.53;5111728;28;989;-72
2022/02/04 03:04:15;;;;;;;;;;;;;;;28.14;24.73;100187.81;5111070;28;1981;-72
2022/02/04 03:06:41;;;;;;;;;;;;;;;28.25;24.74;100190.75;5112821;28;1022;-73
2022/02/04 03:09:07;;;;;;;;;;;;;;;28.08;24.94;100186.03;5112780;28;1324;-73
2022/02/04 03:11:35;;;;;;;;;;;;;;;27.43;25.56;100181.81;5113110;28;859;-74
2022/02/04 03:14:01;;;;;;;;;;;;;;;27.92;24.91;100175.72;5111290;28;1056;-73
2022/02/04 03:16:28;;;;;;;;;;;;;;;27.78;25.21;100169.59;5112663;28;812;-74
2022/02/04 03:18:56;;;;;;;;;;;;;;;28.70;24.18;100175.81;5112593;28;1415;-73
2022/02/04 03:21:27;;;;;;;;;;;;;;;28.10;24.36;100167.13;5112509;28;1006;-72
2022/02/04 03:23:57;;;;;;;;;;;;;;;28.04;24.58;100176.50;5112311;28;1918;-70
2022/02/04 03:26:30;;;;;;;;;;;;;;;28.06;24.82;100168.69;5112197;28;968;-74
2022/02/04 03:28:57;;;;;;;;;;;;;;;27.87;24.80;100171.75;5094002;28;1335;-72
2022/02/04 03:31:30;;;;;;;;;;;;;;;27.88;24.95;100176.19;5112582;28;723;-73
2022/02/04 03:33:56;;;;;;;;;;;;;;;27.58;25.36;100186.81;5114761;28;1057;-70
2022/02/04 03:36:22;;;;;;;;;;;;;;;27.19;26.12;100179.97;5112116;28;907;-71
2022/02/04 03:38:49;;;;;;;;;;;;;;;27.83;24.81;100167.78;5110827;28;1315;-72
2022/02/04 03:41:15;;;;;;;;;;;;;;;28.09;24.77;100171.00;5112140;28;981;-71
2022/02/04 03:43:41;;;;;;;;;;;;;;;28.34;24.05;100170.56;5110745;28;1909;-74
2022/02/04 03:46:09;;;;;;;;;;;;;;;27.28;25.26;100176.75;5110621;28;986;-74
2022/02/04 03:48:36;;;;;;;;;;;;;;;28.17;24.80;100173.34;5111952;28;1339;-73
2022/02/04 03:51:02;;;;;;;;;;;;;;;28.17;24.41;100178.94;5111920;28;1041;-71
2022/02/04 03:53:29;;;;;;;;;;;;;;;27.58;25.39;100184.03;5112387;28;816;-74
2022/02/04 03:55:56;;;;;;;;;;;;;;;27.41;25.75;100182.06;5111812;28;989;-75
2022/02/04 03:58:22;;;;;;;;;;;;;;;27.81;24.66;100175.53;5111879;28;1328;-72
2022/02/04 04:00:48;;;;;;;;;;;;;;;27.64;25.32;100196.97;5110902;28;994;-77
2022/02/04 04:03:19;;;;;;;;;;;;;;;26.80;26.48;100190.84;5110910;28;914;-74
2022/02/04 04:05:49;;;;;;;;;;;;;;;27.71;25.00;100192.06;5111523;28;1989;-75
2022/02/04 04:08:16;;;;;;;;;;;;;;;26.63;25.96;100187.09;5111568;28;1387;-75
2022/02/04 04:10:43;;;;;;;;;;;;;;;28.00;24.54;100184.47;5111816;28;753;-75
2022/02/04 04:13:10;;;;;;;;;;;;;;;28.12;24.57;100192.81;5111610;28;1071;-74
2022/02/04 04:15:37;;;;;;;;;;;;;;;28.10;24.43;100186.66;5110270;28;737;-73
2022/02/04 04:18:03;;;;;;;;;;;;;;;27.45;25.35;100194.41;5093163;28;1407;-72
2022/02/04 04:20:32;;;;;;;;;;;;;;;27.58;25.19;100195.19;5111668;28;950;-72
2022/02/04 04:22:59;;;;;;;;;;;;;;;27.68;25.10;100184.22;5111462;28;921;-74
2022/02/04 04:25:26;;;;;;;;;;;;;;;27.83;24.72;100181.72;5111280;28;1922;-74
2022/02/04 04:27:53;;;;;;;;;;;;;;;27.38;25.15;100182.56;5111820;28;997;-74
2022/02/04 04:30:21;;;;;;;;;;;;;;;28.11;24.45;100188.31;5110229;28;931;-75
2022/02/04 04:32:48;;;;;;;;;;;;;;;27.49;25.23;100180.81;5111636;28;721;-72
2022/02/04 04:35:17;;;;;;;;;;;;;;;27.27;25.16;100180.63;5111137;28;1002;-70
2022/02/04 04:37:47;;;;;;;;;;;;;;;27.24;25.44;100176.41;5111323;28;977;-73
2022/02/04 04:40:31;;;;;;;;;;;;;;;28.33;24.21;100162.44;5111239;28;1348;-75
2022/02/04 04:43:07;;;;;;;;;;;;;;;28.32;23.83;100172.75;5111551;28;835;-75
2022/02/04 05:27:18;;;;;;;;;;;;;;;27.87;24.42;100174.53;5094594;28;1526;-76
2022/02/04 05:29:36;;;;;;;;;;;;;;;28.02;24.13;100171.19;5096025;28;1970;-73
2022/02/04 05:32:03;;;;;;;;;;;;;;;28.54;23.65;100172.78;5112110;28;1284;-73
2022/02/04 05:34:30;;;;;;;;;;;;;;;27.98;24.50;100167.19;5108423;28;1271;-76
2022/02/04 05:37:02;;;;;;;;;;;;;;;27.67;24.71;100165.81;5114590;28;799;-72
2022/02/04 05:39:34;;;;;;;;;;;;;;;28.35;24.27;100172.22;5109212;28;1563;-77
2022/02/04 05:42:04;;;;;;;;;;;;;;;26.53;26.39;100177.41;5111671;28;1594;-75
2022/02/04 05:44:35;;;;;;;;;;;;;;;26.59;26.25;100170.06;5114043;28;1914;-75
2022/02/04 05:47:10;;;;;;;;;;;;;;;27.06;25.31;100164.38;5113919;28;1518;-75
2022/02/04 05:49:39;;;;;;;;;;;;;;;26.40;26.24;100163.75;5114326;28;1335;-75
2022/02/04 05:52:11;;;;;;;;;;;;;;;26.62;26.04;100171.47;5113941;28;977;-76
2022/02/04 05:54:48;;;;;;;;;;;;;;;27.21;25.42;100166.59;5113540;28;982;-75
2022/02/04 05:57:22;;;;;;;;;;;;;;;27.15;25.32;100172.31;5113959;28;768;-76
2022/02/04 06:00:12;;;;;;;;;;;;;;;26.16;26.77;100169.34;5092977;22;3500;-76
2022/02/04 06:02:52;;;;;;;;;;;;;;;25.40;27.10;100171.81;5052765;28;990;-76
2022/02/04 06:05:38;;;;;;;;;;;;;;;27.07;25.57;100176.34;5052793;28;1939;-75
2022/02/04 06:08:27;;;;;;;;;;;;;;;27.76;24.81;100178.22;5035156;28;936;-78
2022/02/04 06:11:11;;;;;;;;;;;;;;;27.40;25.00;100183.16;5033023;28;715;-76
2022/02/04 06:13:54;;;;;;;;;;;;;;;27.56;24.88;100187.91;5015073;28;1274;-76
2022/02/04 06:24:32;;;;;;;;;;;;;;;27.45;24.63;100186.03;5032141;28;1984;-76
2022/02/04 06:26:58;;;;;;;;;;;;;;;27.08;25.27;100183.63;5032748;28;983;-76
2022/02/04 06:29:26;;;;;;;;;;;;;;;27.04;25.18;100190.78;5032650;28;1326;-76
2022/02/04 06:31:52;;;;;;;;;;;;;;;26.53;25.96;100185.75;5032482;28;1042;-76
2022/02/04 06:34:18;;;;;;;;;;;;;;;27.13;25.54;100182.88;5031093;28;816;-75
2022/02/04 06:36:45;;;;;;;;;;;;;;;27.18;25.25;100183.84;5025636;28;1105;-76
2022/02/04 06:39:11;;;;;;;;;;;;;;;27.76;24.41;100172.66;5012655;28;1336;-76
2022/02/04 06:41:37;;;;;;;;;;;;;;;28.11;23.96;100185.53;5011296;28;1079;-75
2022/02/04 06:44:04;;;;;;;;;;;;;;;27.90;23.96;100179.59;5012715;28;991;-78
2022/02/04 06:46:32;;;;;;;;;;;;;;;26.67;26.02;100185.50;5020564;28;1981;-81
2022/02/04 06:48:58;;;;;;;;;;;;;;;27.79;24.64;100174.09;5033556;28;1422;-74
2022/02/04 06:51:24;;;;;;;;;;;;;;;27.49;24.54;100181.66;5032188;28;788;-76
2022/02/04 06:53:51;;;;;;;;;;;;;;;27.61;24.67;100187.16;5029325;28;1123;-77
2022/02/04 06:56:17;;;;;;;;;;;;;;;27.49;24.78;100189.19;5030295;28;990;-76
2022/02/04 06:58:43;;;;;;;;;;;;;;;27.17;25.25;100189.66;5028680;28;1289;-76
2022/02/04 07:01:10;;;;;;;;;;;;;;;27.13;25.62;100197.66;5030795;28;955;-77
2022/02/04 07:03:37;;;;;;;;;;;;;;;27.43;24.64;100192.97;5030294;28;907;-77
2022/02/04 07:06:05;;;;;;;;;;;;;;;26.92;25.24;100196.38;5029822;28;1991;-78
2022/02/04 07:08:38;;;;;;;;;;;;;;;28.14;23.90;100179.47;5031541;28;1412;-74
2022/02/04 07:11:20;;;;;;;;;;;;;;;27.70;24.48;100187.59;5031838;28;1027;-76
2022/02/04 07:14:02;;;;;;;;;;;;;;;27.43;24.72;100193.78;5032164;28;990;-78
2022/02/04 07:16:33;;;;;;;;;;;;;;;27.78;24.57;100181.63;5031744;28;900;-73
2022/02/04 07:21:45;;;;;;;;;;;;;;;27.40;24.84;100191.50;5031732;28;852;-77
2022/02/04 07:24:11;;;;;;;;;;;;;;;27.66;24.44;100189.19;5030333;28;966;-76
2022/02/04 07:26:38;;;;;;;;;;;;;;;27.67;24.40;100190.88;5031488;28;1910;-76
2022/02/04 07:29:04;;;;;;;;;;;;;;;28.12;24.15;100173.28;5031207;28;1290;-76
2022/02/04 07:31:35;;;;;;;;;;;;;;;27.97;24.10;100173.84;5030241;28;832;-75
2022/02/04 07:34:16;;;;;;;;;;;;;;;27.93;24.41;100177.38;5029756;28;933;-75
2022/02/04 07:42:10;;;;;;;;;;;;;;;26.95;25.13;100181.97;5031484;28;864;-76
2022/02/04 07:44:36;;;;;;;;;;;;;;;27.20;25.21;100180.78;5029632;28;1974;-79
2022/02/04 07:47:03;;;;;;;;;;;;;;;26.82;25.87;100179.47;5031425;28;990;-77
2022/02/04 07:49:31;;;;;;;;;;;;;;;26.73;25.47;100170.66;5031344;28;1298;-77
2022/02/04 07:51:57;;;;;;;;;;;;;;;25.41;27.31;100170.75;5030147;28;1165;-75
2022/02/04 07:54:23;;;;;;;;;;;;;;;26.86;25.83;100169.53;5029679;28;1136;-77
2022/02/04 07:56:49;;;;;;;;;;;;;;;25.97;26.49;100165.78;5031110;28;951;-78
2022/02/04 07:59:16;;;;;;;;;;;;;;;27.30;25.42;100169.00;5031197;28;1348;-75
2022/02/04 08:01:42;;;;;;;;;;;;;;;26.89;25.59;100164.31;5029902;28;1069;-77
2022/02/04 08:04:14;;;;;;;;;;;;;;;26.52;25.79;100169.31;5031033;28;953;-78
2022/02/04 08:06:47;;;;;;;;;;;;;;;26.19;25.92;100157.75;5029910;28;1911;-78
2022/02/04 08:09:21;;;;;;;;;;;;;;;27.08;25.63;100163.28;5031136;28;1286;-78
2022/02/04 08:17:37;;;;;;;;;;;;;;;26.75;25.45;100174.03;5026844;28;1118;-78
2022/02/04 08:20:26;;;;;;;;;;;;;;;26.26;26.02;100159.53;5030585;28;1450;-78
2022/02/04 08:26:09;;;;;;;;;;;;;;;26.88;25.30;100168.19;4993883;28;1910;-78
2022/02/04 08:29:04;;;;;;;;;;;;;;;26.38;26.24;100164.00;5030565;28;1380;-77
2022/02/04 08:46:33;;;;;;;;;;;;;;;26.14;26.15;100154.84;5007659;28;1413;-77
2022/02/04 08:48:49;;;;;;;;;;;;;;;26.47;25.82;100150.59;5034602;28;1032;-76
2022/02/04 08:51:26;;;;;;;;;;;;;;;26.22;25.77;100156.41;5033033;28;1443;-74
2022/02/04 08:54:03;;;;;;;;;;;;;;;26.50;25.58;100150.09;5049702;28;875;-77
2022/02/04 08:56:39;;;;;;;;;;;;;;;26.68;24.69;100157.41;5034258;28;684;-74
2022/02/04 08:59:12;;;;;;;;;;;;;;;27.87;23.90;100145.78;5033961;28;1345;-74
2022/02/04 09:01:46;;;;;;;;;;;;;;;27.94;24.31;100142.81;5033068;28;781;-76
2022/02/04 09:04:17;;;;;;;;;;;;;;;27.36;24.50;100154.91;5034046;28;970;-74
2022/02/04 09:06:49;;;;;;;;;;;;;;;28.74;23.50;100137.88;5034294;28;1918;-77
2022/02/04 09:09:27;;;;;;;;;;;;;;;26.93;24.83;100145.16;5032823;28;1354;-74
2022/02/04 09:12:05;;;;;;;;;;;;;;;26.54;24.84;100151.28;5034163;28;837;-76
2022/02/04 09:17:28;;;;;;;;;;;;;;;27.63;24.41;100140.38;5034133;28;911;-77
2022/02/04 09:20:01;;;;;;;;;;;;;;;26.30;25.35;100133.78;5033062;28;1329;-76
2022/02/04 09:22:40;;;;;;;;;;;;;;;26.08;25.71;100139.09;5032798;28;962;-74
2022/02/04 09:25:06;;;;;;;;;;;;;;;27.60;24.16;100126.94;5032261;28;1969;-77
2022/02/04 09:27:34;;;;;;;;;;;;;;;27.23;24.14;100139.38;5033687;28;741;-73
2022/02/04 09:30:02;;;;;;;;;;;;;;;27.34;24.44;100142.31;5033778;28;1314;-76
2022/02/04 09:32:28;;;;;;;;;;;;;;;27.95;23.77;100137.00;5037594;28;1065;-77
2022/02/04 09:34:55;;;;;;;;;;;;;;;26.43;25.07;100142.97;5034821;28;1017;-78
2022/02/04 09:37:21;;;;;;;;;;;;;;;27.85;23.35;100132.09;5045418;28;1363;-76
2022/02/04 09:39:48;;;;;;;;;;;;;;;27.45;24.09;100129.47;5053158;28;1279;-77
2022/02/04 09:42:14;;;;;;;;;;;;;;;26.60;24.44;100143.06;5052856;28;1175;-74
2022/02/04 09:44:42;;;;;;;;;;;;;;;27.64;23.75;100124.50;5052856;28;970;-73
2022/02/04 09:47:08;;;;;;;;;;;;;;;26.91;24.64;100127.84;5051777;28;1981;-72
2022/02/04 09:49:40;;;;;;;;;;;;;;;26.45;25.26;100129.66;5052024;28;1469;-72
2022/02/04 10:08:58;;;;;;;;;;;;;;;26.44;24.29;100117.66;5034988;28;1423;-74
2022/02/04 10:14:20;;;;;;;;;;;;;;;27.13;24.22;100108.53;5052867;28;1381;-75
2022/02/04 10:17:12;;;;;;;;;;;;;;;28.14;23.04;100106.06;5052883;28;801;-75
2022/02/04 10:19:49;;;;;;;;;;;;;;;27.56;23.66;100106.25;5052295;28;1335;-75
2022/02/04 10:22:16;;;;;;;;;;;;;;;27.43;23.84;100101.00;5051139;28;737;-72
2022/02/04 10:24:42;;;;;;;;;;;;;;;26.93;24.49;100095.06;5051044;28;825;-72
2022/02/04 10:27:13;;;;;;;;;;;;;;;27.23;23.73;100082.78;5051290;28;1914;-74
2022/02/04 10:29:40;;;;;;;;;;;;;;;26.92;24.47;100096.16;5052399;28;1338;-73
2022/02/04 10:32:08;;;;;;;;;;;;;;;25.97;25.50;100081.56;5052389;28;946;-73
2022/02/04 10:34:37;;;;;;;;;;;;;;;26.64;24.65;100066.34;5052258;28;974;-76
2022/02/04 10:37:07;;;;;;;;;;;;;;;26.90;24.65;100076.91;5052509;28;930;-76
2022/02/04 10:39:49;;;;;;;;;;;;;;;27.68;23.87;100070.78;5051050;28;1346;-75
2022/02/04 10:42:25;;;;;;;;;;;;;;;28.37;23.58;100064.00;5052308;28;1065;-75
2022/02/04 10:45:03;;;;;;;;;;;;;;;28.89;22.54;100071.06;5034067;28;1506;-77
2022/02/04 10:47:34;;;;;;;;;;;;;;;28.18;23.50;100068.19;5031144;28;1981;-78
2022/02/04 10:50:08;;;;;;;;;;;;;;;29.31;22.59;100066.75;5032347;28;1462;-73
2022/02/04 10:52:56;;;;;;;;;;;;;;;28.68;22.53;100046.81;5032249;28;832;-76
2022/02/04 10:58:18;;;;;;;;;;;;;;;29.03;22.77;100051.09;5048109;28;1345;-73
2022/02/04 11:01:09;;;;;;;;;;;;;;;28.11;23.17;100057.22;5050452;28;1375;-73
2022/02/04 11:03:40;;;;;;;;;;;;;;;27.53;24.70;100054.66;5050271;28;979;-76
2022/02/04 11:06:17;;;;;;;;;;;;;;;28.59;22.94;100048.34;5033741;28;1993;-72
2022/02/04 11:08:57;;;;;;;;;;;;;;;27.93;23.49;100049.09;5050900;28;1416;-76
2022/02/04 11:31:05;;;;;;;;;;;;;;;27.43;24.50;100026.63;5039201;28;2112;-74
2022/02/04 11:33:50;;;;;;;;;;;;;;;27.11;24.49;100029.09;5043533;28;1198;-76
2022/02/04 11:36:38;;;;;;;;;;;;;;;27.62;23.80;100016.06;5038218;28;1264;-75
2022/02/04 11:48:05;;;;;;;;;;;;;;;27.90;23.29;100011.47;5051107;28;1918;-76
2022/02/04 11:53:35;;;;;;;;;;;;;;;29.07;22.86;99993.59;5026617;28;840;-74
2022/02/04 11:56:02;;;;;;;;;;;;;;;29.49;22.64;100000.38;5011480;28;1015;-76
2022/02/04 11:58:28;;;;;;;;;;;;;;;27.03;24.65;99988.59;5026370;28;1309;-73
2022/02/04 12:01:03;;;;;;;;;;;;;;;29.00;22.57;99984.59;5064625;22;3554;-77
2022/02/04 12:03:36;;;;;;;;;;;;;;;28.82;23.04;99983.88;5066435;28;981;-77
2022/02/04 12:06:03;;;;;;;;;;;;;;;26.80;24.06;99964.53;5058181;28;1910;-76
2022/02/04 12:08:33;;;;;;;;;;;;;;;28.05;23.59;99969.00;5070340;28;1689;-75
2022/02/04 12:11:01;;;;;;;;;;;;;;;27.62;23.93;99974.25;5071908;28;1257;-77
2022/02/04 12:13:28;;;;;;;;;;;;;;;27.67;24.13;99973.47;5070461;28;1046;-77
2022/02/04 12:15:56;;;;;;;;;;;;;;;27.60;24.06;99973.66;5070271;28;718;-77
2022/02/04 12:18:24;;;;;;;;;;;;;;;27.09;24.72;99967.25;5070639;28;1014;-77
2022/02/04 12:20:56;;;;;;;;;;;;;;;27.79;23.88;99948.28;5053580;28;1832;-76
2022/02/04 12:23:43;;;;;;;;;;;;;;;28.93;22.90;99945.72;5058375;28;1175;-77
2022/02/04 12:26:16;;;;;;;;;;;;;;;29.56;22.04;99942.31;5050481;28;1910;-74
2022/02/04 12:28:43;;;;;;;;;;;;;;;28.40;23.37;99943.47;5051034;28;967;-77
2022/02/04 12:31:11;;;;;;;;;;;;;;;28.88;22.58;99935.31;5049568;28;1274;-77
2022/02/04 12:33:41;;;;;;;;;;;;;;;26.70;24.94;99932.59;5050947;28;971;-77
2022/02/04 12:36:12;;;;;;;;;;;;;;;27.01;25.01;99924.81;5050661;28;1030;-76
2022/02/04 12:38:38;;;;;;;;;;;;;;;27.01;25.06;99915.63;5050941;28;1125;-77
2022/02/04 12:41:04;;;;;;;;;;;;;;;27.94;23.94;99928.13;5051330;28;1325;-74
2022/02/04 12:43:35;;;;;;;;;;;;;;;27.55;24.16;99923.41;5051713;28;979;-77
2022/02/04 12:46:02;;;;;;;;;;;;;;;27.32;24.50;99914.13;5057762;28;1979;-77
2022/02/04 12:48:28;;;;;;;;;;;;;;;27.13;24.54;99916.34;5072067;28;978;-75
2022/02/04 12:50:55;;;;;;;;;;;;;;;27.56;24.40;99919.53;5071979;28;1316;-76
2022/02/04 12:53:25;;;;;;;;;;;;;;;27.89;24.24;99909.38;5073838;28;1040;-76
2022/02/04 12:56:06;;;;;;;;;;;;;;;28.38;23.44;99903.84;5074406;28;1041;-77
2022/02/04 13:09:51;;;;;;;;;;;;;;;27.30;24.77;99873.69;5065843;28;1313;-76
2022/02/04 13:12:19;;;;;;;;;;;;;;;28.66;23.55;99873.16;5049837;28;990;-77
2022/02/04 13:14:46;;;;;;;;;;;;;;;28.94;23.45;99871.16;5050827;28;1069;-74
2022/02/04 13:17:28;;;;;;;;;;;;;;;28.33;23.69;99872.28;5051116;28;934;-76
2022/02/04 13:19:54;;;;;;;;;;;;;;;28.83;23.13;99867.44;5050929;28;1407;-76
2022/02/04 13:22:21;;;;;;;;;;;;;;;27.99;24.16;99859.28;5049688;28;1330;-75
2022/02/04 13:25:02;;;;;;;;;;;;;;;27.21;24.95;99848.25;5058692;28;1393;-75
2022/02/04 13:27:29;;;;;;;;;;;;;;;27.62;24.46;99842.41;5062287;28;1954;-75
2022/02/04 13:29:55;;;;;;;;;;;;;;;28.29;24.19;99844.03;5053045;28;1379;-75
2022/02/04 13:32:24;;;;;;;;;;;;;;;27.92;24.21;99833.56;5053869;28;919;-74
2022/02/04 13:34:51;;;;;;;;;;;;;;;26.77;25.55;99829.47;5053921;28;1050;-76
2022/02/04 13:37:25;;;;;;;;;;;;;;;26.65;24.98;99826.75;5054602;28;833;-73
2022/02/04 13:39:58;;;;;;;;;;;;;;;28.17;24.17;99833.03;5056069;28;1364;-78
2022/02/04 13:42:33;;;;;;;;;;;;;;;27.21;24.94;99826.81;5056776;28;1149;-76
2022/02/04 13:45:07;;;;;;;;;;;;;;;27.88;24.20;99816.50;5053667;28;990;-74
2022/02/04 13:47:42;;;;;;;;;;;;;;;27.43;24.68;99812.06;5053544;28;1979;-75
2022/02/04 13:50:18;;;;;;;;;;;;;;;27.36;24.69;99811.41;5052449;28;1411;-75
2022/02/04 13:52:59;;;;;;;;;;;;;;;27.87;24.60;99812.06;5052172;28;978;-73
2022/02/04 13:55:35;;;;;;;;;;;;;;;27.68;24.51;99807.94;5053189;28;844;-74
2022/02/04 13:58:16;;;;;;;;;;;;;;;26.65;25.42;99800.88;5053359;28;1117;-72
2022/02/04 14:00:50;;;;;;;;;;;;;;;28.16;23.88;99795.09;5051907;28;1337;-74
2022/02/04 14:03:19;;;;;;;;;;;;;;;28.19;23.66;99791.78;5053553;28;998;-74
2022/02/04 14:05:51;;;;;;;;;;;;;;;27.73;24.29;99794.06;5051795;28;1340;-73
2022/02/04 14:08:28;;;;;;;;;;;;;;;28.27;23.79;99787.66;5053607;28;1962;-77
2022/02/04 14:10:57;;;;;;;;;;;;;;;29.05;23.07;99786.34;5053296;28;1418;-76
2022/02/04 14:13:24;;;;;;;;;;;;;;;28.58;23.17;99792.66;5053278;28;1094;-77
2022/02/04 14:15:52;;;;;;;;;;;;;;;28.50;23.21;99789.28;5052950;28;1023;-75
2022/02/04 14:18:19;;;;;;;;;;;;;;;28.48;23.46;99788.69;5053460;28;793;-77
2022/02/04 14:20:45;;;;;;;;;;;;;;;27.04;24.91;99785.06;5052353;28;1342;-77
2022/02/04 14:23:12;;;;;;;;;;;;;;;27.25;24.48;99782.56;5054101;28;974;-77
2022/02/04 14:25:48;;;;;;;;;;;;;;;27.24;24.96;99783.66;5053473;28;1126;-76
2022/02/04 14:28:18;;;;;;;;;;;;;;;27.36;24.30;99783.53;5051322;28;1922;-75
2022/02/04 14:30:45;;;;;;;;;;;;;;;27.34;24.42;99783.81;5052848;28;1391;-76
2022/02/04 14:33:18;;;;;;;;;;;;;;;29.31;22.79;99778.09;5052848;28;1066;-75
2022/02/04 14:35:59;;;;;;;;;;;;;;;29.42;22.05;99774.22;5051068;28;766;-75
2022/02/04 14:58:32;;;;;;;;;;;;;;;28.21;23.47;99752.47;5068174;28;1188;-77
2022/02/04 15:03:14;;;;;;;;;;;;;;;28.52;22.69;99747.97;5048951;28;1212;-77
2022/02/04 15:05:44;;;;;;;;;;;;;;;27.56;24.18;99741.19;5049245;28;1267;-76
2022/02/04 15:08:15;;;;;;;;;;;;;;;28.96;22.55;99729.31;5056682;28;1914;-76
2022/02/04 15:10:43;;;;;;;;;;;;;;;28.68;23.05;99728.56;5052698;28;1428;-78
2022/02/04 15:13:13;;;;;;;;;;;;;;;28.67;22.83;99724.09;5053359;28;819;-76
2022/02/04 15:15:40;;;;;;;;;;;;;;;27.22;23.87;99713.47;5051182;28;808;-75
2022/02/04 15:18:06;;;;;;;;;;;;;;;28.12;23.22;99707.47;5040979;28;1025;-74
2022/02/04 15:20:33;;;;;;;;;;;;;;;28.65;23.03;99699.25;5024318;28;1480;-74
2022/02/04 15:22:59;;;;;;;;;;;;;;;28.05;23.40;99693.75;5013881;28;1200;-75
2022/02/04 15:25:27;;;;;;;;;;;;;;;27.95;23.34;99698.38;5034688;28;1045;-74
2022/02/04 15:28:04;;;;;;;;;;;;;;;28.54;23.00;99692.72;5038402;28;2023;-76
2022/02/04 15:30:34;;;;;;;;;;;;;;;27.61;23.77;99693.88;5051903;28;1471;-74
2022/02/04 15:33:00;;;;;;;;;;;;;;;27.51;24.01;99691.81;5051839;28;1121;-75
2022/02/04 15:35:29;;;;;;;;;;;;;;;28.18;23.08;99709.22;5051272;28;932;-76
2022/02/04 15:37:55;;;;;;;;;;;;;;;27.76;23.87;99695.97;5052202;28;698;-74
2022/02/04 15:40:21;;;;;;;;;;;;;;;28.95;22.55;99702.47;5050583;28;1502;-77
2022/02/04 15:42:56;;;;;;;;;;;;;;;28.80;22.57;99686.50;5051288;28;1496;-77
2022/02/04 15:45:58;;;;;;;;;;;;;;;27.49;24.11;99679.25;5050374;28;1531;-75
2022/02/04 15:48:24;;;;;;;;;;;;;;;28.44;22.98;99672.28;5051680;28;1914;-75
2022/02/04 15:51:04;;;;;;;;;;;;;;;27.94;23.40;99666.00;5051930;28;1377;-74
2022/02/04 15:53:35;;;;;;;;;;;;;;;27.95;23.50;99662.94;5050821;28;797;-74
2022/02/04 15:59:02;;;;;;;;;;;;;;;28.32;22.94;99644.59;5051117;28;804;-74
2022/02/04 16:01:44;;;;;;;;;;;;;;;28.46;22.97;99653.31;5051324;28;1332;-76
2022/02/04 16:06:57;;;;;;;;;;;;;;;26.36;25.01;99648.81;5048650;28;1981;-76
2022/02/04 16:09:24;;;;;;;;;;;;;;;27.10;24.23;99646.75;5053648;28;1387;-75
2022/02/04 16:11:58;;;;;;;;;;;;;;;27.20;24.23;99646.84;5052381;28;921;-73
2022/02/04 16:14:30;;;;;;;;;;;;;;;28.12;23.20;99657.28;5054549;28;1134;-76
2022/02/04 16:17:00;;;;;;;;;;;;;;;28.28;22.97;99649.03;5058707;28;990;-75
2022/02/04 16:19:29;;;;;;;;;;;;;;;28.28;23.01;99649.03;5055434;28;1329;-75
2022/02/04 16:22:14;;;;;;;;;;;;;;;27.40;23.88;99646.28;5052102;28;951;-75
2022/02/04 16:25:08;;;;;;;;;;;;;;;27.96;23.19;99642.34;5053370;28;1197;-75
2022/02/04 16:30:20;;;;;;;;;;;;;;;28.32;23.16;99633.44;5072313;28;1290;-74
2022/02/04 16:32:47;;;;;;;;;;;;;;;28.26;23.20;99640.06;5072316;28;975;-75
2022/02/04 16:35:13;;;;;;;;;;;;;;;28.51;22.90;99639.41;5070837;28;1477;-73
2022/02/04 16:37:42;;;;;;;;;;;;;;;28.59;22.93;99641.66;5072736;28;845;-74
2022/02/04 16:40:13;;;;;;;;;;;;;;;27.34;23.93;99629.72;5072317;28;1392;-75
2022/02/04 16:42:41;;;;;;;;;;;;;;;26.65;24.77;99623.63;5065214;28;1583;-76
2022/02/04 16:45:07;;;;;;;;;;;;;;;27.31;24.34;99630.28;5053656;28;1062;-75
2022/02/04 16:47:35;;;;;;;;;;;;;;;28.11;23.38;99622.13;5050195;28;1981;-76
2022/02/04 16:50:02;;;;;;;;;;;;;;;27.60;23.77;99630.88;5052714;28;1317;-75
2022/02/04 16:52:29;;;;;;;;;;;;;;;27.60;23.77;99633.66;5051388;28;927;-75
2022/02/04 16:54:55;;;;;;;;;;;;;;;28.05;23.30;99620.41;5049895;28;1006;-74
2022/02/04 16:57:24;;;;;;;;;;;;;;;27.77;23.19;99624.31;5051891;28;1034;-75
2022/02/04 16:59:51;;;;;;;;;;;;;;;26.71;24.34;99621.75;5059401;28;1415;-75
2022/02/04 17:02:17;;;;;;;;;;;;;;;25.88;25.07;99605.75;5071096;28;978;-74
2022/02/04 17:04:45;;;;;;;;;;;;;;;27.40;23.78;99603.66;5061625;28;1508;-75
2022/02/04 17:07:18;;;;;;;;;;;;;;;28.18;22.91;99597.63;5047971;28;1918;-76
2022/02/04 17:09:48;;;;;;;;;;;;;;;27.14;23.42;99591.38;5049476;28;1407;-74
2022/02/04 17:12:17;;;;;;;;;;;;;;;26.41;24.27;99581.28;5052287;28;1405;-74
2022/02/04 17:14:43;;;;;;;;;;;;;;;27.17;23.88;99596.44;5051827;28;1481;-74
2022/02/04 17:17:10;;;;;;;;;;;;;;;27.41;23.39;99571.91;5053187;28;978;-76
2022/02/04 17:19:43;;;;;;;;;;;;;;;26.67;23.99;99574.13;5049792;28;1519;-75
2022/02/04 17:22:12;;;;;;;;;;;;;;;27.18;23.67;99568.31;5051864;28;1442;-74
2022/02/04 17:24:39;;;;;;;;;;;;;;;25.73;25.21;99568.31;5052811;28;979;-75
2022/02/04 17:27:06;;;;;;;;;;;;;;;25.88;24.99;99558.53;5050860;28;1920;-74
2022/02/04 17:29:32;;;;;;;;;;;;;;;26.18;24.48;99576.81;5051858;28;1577;-75